KBBB/BBB METAR and TAF weather

Enter ICAO airport designator
Station Type Date Time Source
KBBB METAR 2019/02/23 03:15 UTC NOAA

KBBB 230315Z AUTO 11008KT 10SM SCT048 OVC060 M07/M09 A3016 RMK AO2


Station Type Date Time Source
KBBB Decoded METAR 2019/02/23 03:15 UTC NOAA

Benson Municipal, MN, United States (KBBB) 45-19N 095-39W
Feb 22, 2019 - 10:15 PM EST / 2019.02.23 0315 UTC
Wind: from the ESE (110 degrees) at 9 MPH (8 KT):0
Visibility: 10 mile(s):0
Sky conditions: overcast
Temperature: 19 F (-7 C)
Windchill: 8 F (-13 C):1
Dew Point: 15 F (-9 C)
Relative Humidity: 85%
Pressure (altimeter): 30.16 in. Hg (1021 hPa)
ob: KBBB 230315Z AUTO 11008KT 10SM SCT048 OVC060 M07/M09 A3016 RMK AO2
cycle: 3

Station Type Date Time Source
KBBB TAF UTC NOAA

Error!


Example: see airport list